createdAt,value
2022-09-15T00:00:31.423Z,91.92
2022-09-15T00:03:22.897Z,91.90
2022-09-15T00:05:55.208Z,91.98
2022-09-15T00:08:26.893Z,91.81
2022-09-15T00:11:03.812Z,91.93
2022-09-15T00:13:35.219Z,92.00
2022-09-15T00:16:07.418Z,92.00
2022-09-15T00:18:39.662Z,91.92
2022-09-15T00:21:12.584Z,92.04
2022-09-15T00:23:43.458Z,91.93
2022-09-15T00:26:21.370Z,91.66
2022-09-15T00:28:52.520Z,91.70
2022-09-15T00:31:26.638Z,91.68
2022-09-15T00:33:59.877Z,91.61
2022-09-15T00:36:31.042Z,91.73
2022-09-15T00:39:02.156Z,91.57
2022-09-15T00:41:33.031Z,91.55
2022-09-15T00:44:06.785Z,91.67
2022-09-15T00:46:40.628Z,91.19
2022-09-15T00:49:17.129Z,91.35
2022-09-15T00:51:53.957Z,91.35
2022-09-15T00:54:30.315Z,91.37
2022-09-15T00:57:05.795Z,91.14
2022-09-15T00:59:40.679Z,91.27
2022-09-15T01:02:17.012Z,91.28
2022-09-15T01:04:48.429Z,91.23
2022-09-15T01:07:26.555Z,91.22
2022-09-15T01:10:01.094Z,91.26
2022-09-15T01:12:32.444Z,91.28
2022-09-15T01:15:04.305Z,91.49
2022-09-15T01:17:54.431Z,91.35
2022-09-15T01:20:48.962Z,91.36
2022-09-15T01:23:39.341Z,91.46
2022-09-15T01:26:42.554Z,91.28
2022-09-15T01:29:39.185Z,91.19
2022-09-15T01:32:34.321Z,91.48
2022-09-15T01:35:10.573Z,91.49
2022-09-15T01:37:45.891Z,91.32
2022-09-15T01:40:19.638Z,91.52
2022-09-15T01:42:52.334Z,91.54
2022-09-15T01:45:29.462Z,91.36
2022-09-15T01:48:03.117Z,91.46
2022-09-15T01:50:38.416Z,91.20
2022-09-15T01:53:15.218Z,91.05
2022-09-15T01:55:51.614Z,90.64
2022-09-15T01:58:22.825Z,90.60
2022-09-15T02:00:58.364Z,90.03
2022-09-15T02:03:35.203Z,89.85
2022-09-15T02:06:14.715Z,89.71
2022-09-15T02:08:49.909Z,89.49
2022-09-15T02:11:28.138Z,89.10
2022-09-15T02:14:11.398Z,89.08
2022-09-15T02:16:47.181Z,88.83
2022-09-15T02:19:31.312Z,88.77
2022-09-15T02:22:10.705Z,88.71
2022-09-15T02:24:45.533Z,88.66
2022-09-15T02:27:21.951Z,88.62
2022-09-15T02:29:55.487Z,88.46
2022-09-15T02:32:29.804Z,88.42
2022-09-15T02:35:06.731Z,88.03
2022-09-15T02:37:39.008Z,87.77
2022-09-15T02:40:11.458Z,87.36
2022-09-15T02:42:42.701Z,87.46
2022-09-15T02:45:14.546Z,87.29
2022-09-15T02:47:45.613Z,87.71
2022-09-15T02:50:17.273Z,87.53
2022-09-15T02:52:48.166Z,87.38
2022-09-15T02:55:19.306Z,87.75
2022-09-15T02:57:50.586Z,87.61
2022-09-15T03:00:21.790Z,87.50
2022-09-15T03:02:54.567Z,87.65
2022-09-15T03:05:27.518Z,87.73
2022-09-15T03:07:59.052Z,87.38
2022-09-15T03:10:29.855Z,87.42
2022-09-15T03:13:00.790Z,87.50
2022-09-15T03:15:31.699Z,87.31
2022-09-15T03:18:04.277Z,87.36
2022-09-15T03:20:34.997Z,87.41
2022-09-15T03:23:05.892Z,87.47
2022-09-15T03:25:36.957Z,87.35
2022-09-15T03:28:08.735Z,87.37
2022-09-15T03:30:39.719Z,87.28
2022-09-15T03:33:10.885Z,87.33
2022-09-15T03:35:41.754Z,87.49
2022-09-15T03:38:12.764Z,87.41
2022-09-15T03:40:44.094Z,87.40
2022-09-15T03:43:18.603Z,87.41
2022-09-15T03:45:49.534Z,87.60
2022-09-15T03:48:20.474Z,87.53
2022-09-15T03:50:51.584Z,87.63
2022-09-15T03:53:22.955Z,87.55
2022-09-15T03:55:54.596Z,87.69
2022-09-15T03:58:30.080Z,87.42
2022-09-15T04:01:01.682Z,86.98
2022-09-15T04:03:32.873Z,86.62
2022-09-15T04:06:04.051Z,86.71
2022-09-15T04:08:35.125Z,86.77
2022-09-15T04:11:08.650Z,86.47
2022-09-15T04:13:42.053Z,86.34
2022-09-15T04:16:15.522Z,86.04
2022-09-15T04:18:46.675Z,86.04
2022-09-15T04:21:19.761Z,86.32
2022-09-15T04:23:51.548Z,86.53
2022-09-15T04:26:27.229Z,86.62
2022-09-15T04:29:01.696Z,86.75
2022-09-15T04:31:36.148Z,86.60
2022-09-15T04:34:06.952Z,86.94
2022-09-15T04:36:38.154Z,86.94
2022-09-15T04:39:09.187Z,86.85
2022-09-15T04:41:40.936Z,86.95
2022-09-15T04:44:11.766Z,86.84
2022-09-15T04:46:42.638Z,86.63
2022-09-15T04:49:14.561Z,86.64
2022-09-15T04:51:45.290Z,86.73
2022-09-15T04:54:16.386Z,86.66
2022-09-15T04:56:47.533Z,86.72
2022-09-15T04:59:20.235Z,86.83
2022-09-15T05:01:54.672Z,86.73
2022-09-15T05:04:25.791Z,86.68
2022-09-15T05:06:56.613Z,86.62
2022-09-15T05:09:29.676Z,86.55
2022-09-15T05:12:00.559Z,86.20
2022-09-15T05:14:31.851Z,86.36
2022-09-15T05:17:02.769Z,86.19
2022-09-15T05:19:34.170Z,86.22
2022-09-15T05:22:05.095Z,86.29
2022-09-15T05:24:35.870Z,86.32
2022-09-15T05:27:07.683Z,85.93
2022-09-15T05:29:38.627Z,85.82
2022-09-15T05:32:09.627Z,85.83
2022-09-15T05:34:40.367Z,85.52
2022-09-15T05:37:11.452Z,85.75
2022-09-15T05:39:42.185Z,85.76
2022-09-15T05:42:13.020Z,85.83
2022-09-15T05:44:44.112Z,85.70
2022-09-15T05:47:16.486Z,85.48
2022-09-15T05:49:47.523Z,85.69
2022-09-15T05:52:18.213Z,85.75
2022-09-15T05:54:48.901Z,85.73
2022-09-15T05:57:18.217Z,85.86
2022-09-15T05:59:49.132Z,85.99
2022-09-15T06:02:20.115Z,85.82
2022-09-15T06:05:26.374Z,85.72
2022-09-15T06:07:59.019Z,85.91
2022-09-15T06:10:29.681Z,85.70
2022-09-15T06:13:00.694Z,85.76
2022-09-15T06:15:32.245Z,85.56
2022-09-15T06:18:08.181Z,85.65
2022-09-15T06:20:41.112Z,85.61
2022-09-15T06:23:20.264Z,85.50
2022-09-15T06:25:51.407Z,85.48
2022-09-15T06:28:22.409Z,85.23
2022-09-15T06:30:53.342Z,85.13
2022-09-15T06:33:24.453Z,85.10
2022-09-15T06:35:55.531Z,85.02
2022-09-15T06:38:26.755Z,84.77
2022-09-15T06:41:01.409Z,84.08
2022-09-15T06:43:33.874Z,83.91
2022-09-15T06:46:10.196Z,83.24
2022-09-15T06:48:46.255Z,83.34
2022-09-15T06:51:22.457Z,83.11
2022-09-15T06:53:54.674Z,82.97
2022-09-15T06:56:34.570Z,83.33
2022-09-15T06:59:12.190Z,83.00
2022-09-15T07:01:46.072Z,83.17
2022-09-15T07:04:17.201Z,83.27
2022-09-15T07:06:50.443Z,83.68
2022-09-15T07:09:21.353Z,83.95
2022-09-15T07:11:52.283Z,84.13
2022-09-15T07:14:23.372Z,83.93
2022-09-15T07:16:54.315Z,83.86
2022-09-15T07:19:25.430Z,84.07
2022-09-15T07:21:56.207Z,83.88
2022-09-15T07:24:27.136Z,83.10
2022-09-15T07:26:58.213Z,82.16
2022-09-15T07:29:29.315Z,81.51
2022-09-15T07:32:00.358Z,80.86
2022-09-15T07:34:31.358Z,79.13
2022-09-15T07:37:02.661Z,79.47
2022-09-15T07:39:33.897Z,79.87
2022-09-15T07:42:05.037Z,79.63
2022-09-15T07:44:36.123Z,79.55
2022-09-15T07:47:07.303Z,79.31
2022-09-15T07:49:38.216Z,79.55
2022-09-15T07:52:10.204Z,79.29
2022-09-15T07:54:41.143Z,78.67
2022-09-15T07:57:12.187Z,79.51
2022-09-15T07:59:43.167Z,79.41
2022-09-15T08:02:19.079Z,79.08
2022-09-15T08:04:50.325Z,79.12
2022-09-15T08:07:21.638Z,78.94
2022-09-15T08:09:52.680Z,79.26
2022-09-15T08:12:23.399Z,79.75
2022-09-15T08:14:54.420Z,80.13
2022-09-15T08:17:25.356Z,80.08
2022-09-15T08:19:56.334Z,80.05
2022-09-15T08:22:27.416Z,80.16
2022-09-15T08:24:58.352Z,80.10
2022-09-15T08:27:29.496Z,80.02
2022-09-15T08:30:00.753Z,79.96
2022-09-15T08:32:32.194Z,80.32
2022-09-15T08:35:03.133Z,79.33
2022-09-15T08:37:34.507Z,80.15
2022-09-15T08:40:07.234Z,81.11
2022-09-15T08:42:44.840Z,80.68
2022-09-15T08:45:23.057Z,79.72
2022-09-15T08:47:58.744Z,79.16
2022-09-15T08:50:31.939Z,78.40
2022-09-15T08:53:09.739Z,77.43
2022-09-15T08:55:48.925Z,77.81
2022-09-15T08:58:22.243Z,78.01
2022-09-15T09:01:01.432Z,77.57
2022-09-15T09:03:49.365Z,78.05
2022-09-15T09:06:30.582Z,77.93
2022-09-15T09:09:20.995Z,77.27
2022-09-15T09:12:07.479Z,77.20
2022-09-15T09:14:51.845Z,77.37
2022-09-15T09:17:37.531Z,77.65
2022-09-15T09:20:27.632Z,77.83
2022-09-15T09:23:01.584Z,77.32
2022-09-15T09:25:32.481Z,76.91
2022-09-15T09:28:24.286Z,76.13
2022-09-15T09:30:56.164Z,75.97
2022-09-15T09:33:34.391Z,75.29
2022-09-15T09:36:06.672Z,75.03
2022-09-15T09:38:41.353Z,74.72
2022-09-15T09:41:17.933Z,74.04
2022-09-15T09:43:48.974Z,74.38
2022-09-15T09:46:22.250Z,75.54
2022-09-15T09:48:57.464Z,75.76
2022-09-15T09:51:38.000Z,75.27
2022-09-15T09:54:20.603Z,75.06
2022-09-15T09:56:53.483Z,75.53
2022-09-15T09:59:39.783Z,74.26
2022-09-15T10:02:25.037Z,73.11
2022-09-15T10:05:14.486Z,73.45
2022-09-15T10:07:44.872Z,73.63
2022-09-15T10:10:24.395Z,73.76
2022-09-15T10:12:58.202Z,73.93
2022-09-15T10:15:32.522Z,73.35
2022-09-15T10:18:04.069Z,73.54
2022-09-15T10:20:41.272Z,73.67
2022-09-15T10:23:28.273Z,74.27
2022-09-15T10:26:19.294Z,74.24
2022-09-15T10:29:14.902Z,75.02
2022-09-15T10:31:47.147Z,75.84
2022-09-15T10:34:31.429Z,75.92
2022-09-15T10:37:13.536Z,75.08
2022-09-15T10:39:53.078Z,74.03
2022-09-15T10:42:37.740Z,73.96
2022-09-15T10:45:23.855Z,74.03
2022-09-15T10:48:14.160Z,74.86
2022-09-15T10:50:55.706Z,76.14
2022-09-15T10:54:00.796Z,76.33
2022-09-15T10:56:35.359Z,73.47
2022-09-15T10:59:32.399Z,73.54
2022-09-15T11:02:35.282Z,73.34
2022-09-15T11:05:22.613Z,73.81
2022-09-15T11:08:06.360Z,72.84
2022-09-15T11:10:45.499Z,72.19
2022-09-15T11:13:25.894Z,71.74
2022-09-15T11:16:04.680Z,69.39
2022-09-15T11:18:51.296Z,70.05
2022-09-15T11:21:30.483Z,69.57
2022-09-15T11:24:27.386Z,70.57
2022-09-15T11:27:03.233Z,70.22
2022-09-15T11:29:52.743Z,68.69
2022-09-15T11:32:29.151Z,67.56
2022-09-15T11:35:07.691Z,68.41
2022-09-15T11:37:43.486Z,67.80
2022-09-15T11:40:22.219Z,68.42
2022-09-15T11:43:01.356Z,68.37
2022-09-15T11:45:38.195Z,68.35
2022-09-15T11:48:16.679Z,68.37
2022-09-15T11:50:50.783Z,68.78
2022-09-15T11:53:32.713Z,69.51
2022-09-15T11:56:14.472Z,70.39
2022-09-15T11:59:03.792Z,70.48
2022-09-15T12:01:42.107Z,70.69
2022-09-15T12:04:18.153Z,71.09
2022-09-15T12:06:54.939Z,70.60
2022-09-15T12:09:25.401Z,69.97
2022-09-15T12:12:01.922Z,70.14
2022-09-15T12:14:36.435Z,70.12
2022-09-15T12:17:11.383Z,69.73
2022-09-15T12:19:53.650Z,69.79
2022-09-15T12:22:30.085Z,69.37
2022-09-15T12:25:06.720Z,69.11
2022-09-15T12:27:37.749Z,69.12
2022-09-15T12:30:31.597Z,69.79
2022-09-15T12:33:22.338Z,68.02
2022-09-15T12:35:55.235Z,67.09
2022-09-15T12:38:31.719Z,66.99
2022-09-15T12:41:02.528Z,66.99
2022-09-15T12:43:33.365Z,65.38
2022-09-15T12:46:04.759Z,66.05
2022-09-15T12:48:37.600Z,66.60
2022-09-15T12:51:11.625Z,65.45
2022-09-15T12:53:54.763Z,65.51
2022-09-15T12:56:28.443Z,65.59
2022-09-15T12:59:06.590Z,65.55
2022-09-15T13:01:51.620Z,66.01
2022-09-15T13:04:45.205Z,66.11
2022-09-15T13:07:54.015Z,64.94
2022-09-15T13:10:42.539Z,63.96
2022-09-15T13:13:28.726Z,63.51
2022-09-15T13:16:07.569Z,63.81
2022-09-15T13:18:39.541Z,64.95
2022-09-15T13:21:17.088Z,65.62
2022-09-15T13:23:52.974Z,65.91
2022-09-15T13:26:28.348Z,65.67
2022-09-15T13:29:00.313Z,66.30
2022-09-15T13:31:40.138Z,66.75
2022-09-15T13:38:15.072Z,66.91
2022-09-15T13:41:07.115Z,67.03
2022-09-15T13:44:00.141Z,66.29
2022-09-15T13:46:42.827Z,67.64
2022-09-15T13:49:38.051Z,68.25
2022-09-15T13:52:22.781Z,67.89
2022-09-15T13:55:17.385Z,67.43
2022-09-15T14:00:55.461Z,66.89
2022-09-15T14:03:36.899Z,66.97
2022-09-15T14:06:14.816Z,67.15
2022-09-15T14:08:49.855Z,66.50
2022-09-15T14:11:26.617Z,66.66
2022-09-15T14:13:59.400Z,67.08
2022-09-15T14:16:36.649Z,67.27
2022-09-15T14:19:33.365Z,67.02
2022-09-15T14:22:19.670Z,66.53
2022-09-15T14:24:54.135Z,66.66
2022-09-15T14:27:27.453Z,67.15
2022-09-15T14:30:02.621Z,67.49
2022-09-15T14:32:39.067Z,67.62
2022-09-15T14:35:18.955Z,66.87
2022-09-15T14:37:55.213Z,67.04
2022-09-15T14:40:31.174Z,67.35
2022-09-15T14:43:03.137Z,67.07
2022-09-15T14:48:34.346Z,65.87
2022-09-15T14:51:10.004Z,66.99
2022-09-15T14:53:44.426Z,67.21
2022-09-15T14:56:20.460Z,67.52
2022-09-15T14:58:55.265Z,67.38
2022-09-15T15:01:33.688Z,67.53
2022-09-15T15:04:11.971Z,66.50
2022-09-15T15:06:52.804Z,66.22
2022-09-15T15:09:30.042Z,65.65
2022-09-15T15:12:05.817Z,65.60
2022-09-15T15:14:37.723Z,64.77
2022-09-15T15:17:25.268Z,64.98
2022-09-15T15:20:02.830Z,64.21
2022-09-15T15:22:33.702Z,63.58
2022-09-15T15:25:21.850Z,62.29
2022-09-15T15:27:55.443Z,62.07
2022-09-15T15:30:46.746Z,61.18
2022-09-15T15:33:27.713Z,60.52
2022-09-15T15:36:11.812Z,62.12
2022-09-15T15:38:50.678Z,62.60
2022-09-15T15:41:25.010Z,62.70
2022-09-15T15:44:03.384Z,62.84
2022-09-15T15:46:57.455Z,63.45
2022-09-15T15:49:30.435Z,63.69
2022-09-15T15:52:02.810Z,64.12
2022-09-15T15:54:36.447Z,64.32
2022-09-15T15:57:24.241Z,64.60
2022-09-15T15:59:58.769Z,64.89
2022-09-15T16:02:30.179Z,65.39
2022-09-15T16:05:01.500Z,65.94
2022-09-15T16:07:33.871Z,65.92
2022-09-15T16:10:05.722Z,66.24
2022-09-15T16:12:36.437Z,66.62
2022-09-15T16:15:15.105Z,67.03
2022-09-15T16:17:46.955Z,67.40
2022-09-15T16:20:20.300Z,67.62
2022-09-15T16:22:51.096Z,67.86
2022-09-15T16:25:29.711Z,68.51
2022-09-15T16:28:01.056Z,68.96
2022-09-15T16:30:32.919Z,69.39
2022-09-15T16:33:03.930Z,69.83
2022-09-15T16:35:40.359Z,70.04
2022-09-15T16:38:11.545Z,70.15
2022-09-15T16:40:42.603Z,70.59
2022-09-15T16:43:16.948Z,70.74
2022-09-15T16:45:48.921Z,70.71
2022-09-15T16:48:21.693Z,71.22
2022-09-15T16:53:44.055Z,71.87
2022-09-15T16:56:16.010Z,72.11
2022-09-15T16:58:47.468Z,72.40
2022-09-15T17:01:21.487Z,72.66
2022-09-15T17:03:52.552Z,72.92
2022-09-15T17:06:23.871Z,73.32
2022-09-15T17:08:55.717Z,73.49
2022-09-15T17:11:27.797Z,73.63
2022-09-15T17:13:58.739Z,73.96
2022-09-15T17:16:29.791Z,74.08
2022-09-15T17:19:00.715Z,74.23
2022-09-15T17:21:31.651Z,74.48
2022-09-15T17:24:03.047Z,74.74
2022-09-15T17:26:34.378Z,75.01
2022-09-15T17:29:05.427Z,75.35
2022-09-15T17:31:36.627Z,76.21
2022-09-15T17:34:11.657Z,75.62
2022-09-15T17:36:42.435Z,75.44
2022-09-15T17:39:13.680Z,74.99
2022-09-15T17:41:44.931Z,73.89
2022-09-15T17:44:15.952Z,73.32
2022-09-15T17:46:46.989Z,73.05
2022-09-15T17:49:18.198Z,73.10
2022-09-15T17:51:49.237Z,73.39
2022-09-15T17:54:20.371Z,73.86
2022-09-15T17:56:51.178Z,73.81
2022-09-15T17:59:21.979Z,73.89
2022-09-15T18:01:53.438Z,74.10
2022-09-15T18:04:24.414Z,74.41
2022-09-15T18:06:55.567Z,74.49
2022-09-15T18:09:26.488Z,74.61
2022-09-15T18:11:57.618Z,75.14
2022-09-15T18:14:28.512Z,75.79
2022-09-15T18:17:08.516Z,76.04
2022-09-15T18:19:40.514Z,76.24
2022-09-15T18:22:15.063Z,76.28
2022-09-15T18:24:46.251Z,76.64
2022-09-15T18:27:17.334Z,76.81
2022-09-15T18:29:48.302Z,76.97
2022-09-15T18:32:19.264Z,77.08
2022-09-15T18:34:50.326Z,77.26
2022-09-15T18:37:21.355Z,77.62
2022-09-15T18:39:52.517Z,77.79
2022-09-15T18:42:27.201Z,77.95
2022-09-15T18:45:01.119Z,78.09
2022-09-15T18:47:32.250Z,77.88
2022-09-15T18:50:05.190Z,77.80
2022-09-15T18:52:40.192Z,77.84
2022-09-15T18:55:15.169Z,77.79
2022-09-15T18:57:47.394Z,77.82
2022-09-15T19:00:21.199Z,77.94
2022-09-15T19:02:56.961Z,78.11
2022-09-15T19:05:29.247Z,78.13
2022-09-15T19:08:00.450Z,78.36
2022-09-15T19:10:32.526Z,78.40
2022-09-15T19:13:03.771Z,77.97
2022-09-15T19:15:35.346Z,78.23
2022-09-15T19:18:09.140Z,78.71
2022-09-15T19:20:40.397Z,78.76
2022-09-15T19:23:12.331Z,78.90
2022-09-15T19:25:45.337Z,79.24
2022-09-15T19:28:16.891Z,79.30
2022-09-15T19:30:47.860Z,79.46
2022-09-15T19:33:18.850Z,79.52
2022-09-15T19:35:59.970Z,79.34
2022-09-15T19:38:37.097Z,79.46
2022-09-15T19:41:11.308Z,79.50
2022-09-15T19:43:43.109Z,79.60
2022-09-15T19:46:19.131Z,79.61
2022-09-15T19:48:50.392Z,79.56
2022-09-15T19:51:21.900Z,79.58
2022-09-15T19:53:56.543Z,79.96
2022-09-15T19:56:29.072Z,80.24
2022-09-15T19:59:00.929Z,80.32
2022-09-15T20:01:33.383Z,80.27
2022-09-15T20:06:53.315Z,80.29
2022-09-15T20:09:24.279Z,80.28
2022-09-15T20:11:54.958Z,80.37
2022-09-15T20:14:25.741Z,80.37
2022-09-15T20:17:00.330Z,80.49
2022-09-15T20:19:33.648Z,80.41
2022-09-15T20:22:05.049Z,80.38
2022-09-15T20:24:36.092Z,80.45
2022-09-15T20:27:09.184Z,80.54
2022-09-15T20:29:40.576Z,80.58
2022-09-15T20:32:11.646Z,80.73
2022-09-15T20:34:42.855Z,80.87
2022-09-15T20:37:14.005Z,80.95
2022-09-15T20:39:49.216Z,81.15
2022-09-15T20:42:20.443Z,81.26
2022-09-15T20:44:51.330Z,81.19
2022-09-15T20:47:22.330Z,81.07
2022-09-15T20:49:53.308Z,81.07
2022-09-15T20:52:27.944Z,81.00
2022-09-15T20:55:00.306Z,81.00
2022-09-15T20:57:31.334Z,81.14
2022-09-15T21:00:02.759Z,81.23
2022-09-15T21:02:33.688Z,81.27
2022-09-15T21:05:02.849Z,81.23
2022-09-15T21:07:34.207Z,81.50
2022-09-15T21:10:05.194Z,81.50
2022-09-15T21:12:36.088Z,81.54
2022-09-15T21:15:08.784Z,81.42
2022-09-15T21:17:39.666Z,81.21
2022-09-15T21:20:11.711Z,81.10
2022-09-15T21:22:42.847Z,81.16
2022-09-15T21:25:13.715Z,80.95
2022-09-15T21:27:46.272Z,80.73
2022-09-15T21:30:17.906Z,80.56
2022-09-15T21:32:49.284Z,80.05
2022-09-15T21:35:20.123Z,79.82
2022-09-15T21:37:51.283Z,79.25
2022-09-15T21:40:20.489Z,79.08
2022-09-15T21:42:51.468Z,79.28
2022-09-15T21:45:22.534Z,78.88
2022-09-15T21:47:53.582Z,78.86
2022-09-15T21:50:24.428Z,78.86
2022-09-15T21:52:53.755Z,78.76
2022-09-15T21:55:23.152Z,78.44
2022-09-15T21:57:54.070Z,78.28
2022-09-15T22:00:25.043Z,78.54
2022-09-15T22:02:56.314Z,78.60
2022-09-15T22:05:27.027Z,78.72
2022-09-15T22:08:02.762Z,79.02
2022-09-15T22:10:35.775Z,79.37
2022-09-15T22:13:08.000Z,79.56
2022-09-15T22:15:39.540Z,79.45
2022-09-15T22:18:11.534Z,79.47
2022-09-15T22:20:42.587Z,79.53
2022-09-15T22:23:13.574Z,79.65
2022-09-15T22:25:45.390Z,79.61
2022-09-15T22:28:16.230Z,79.54
2022-09-15T22:30:47.270Z,79.60
2022-09-15T22:33:18.722Z,79.77
2022-09-15T22:35:50.893Z,79.81
2022-09-15T22:38:22.646Z,80.05
2022-09-15T22:40:53.986Z,80.39
2022-09-15T22:43:25.139Z,80.62
2022-09-15T22:45:56.437Z,80.66
2022-09-15T22:48:27.529Z,80.75
2022-09-15T22:50:58.571Z,80.92
2022-09-15T23:01:10.120Z,81.27
2022-09-15T23:03:41.994Z,81.27
2022-09-15T23:10:37.464Z,81.29
2022-09-15T23:13:06.735Z,81.32
2022-09-15T23:15:38.153Z,81.53
2022-09-15T23:18:09.140Z,81.74
2022-09-15T23:20:40.474Z,81.71
2022-09-15T23:23:11.831Z,81.69
2022-09-15T23:25:42.949Z,81.74
2022-09-15T23:28:13.990Z,81.77
2022-09-15T23:30:44.872Z,81.86
2022-09-15T23:33:16.120Z,82.19
2022-09-15T23:35:47.425Z,82.13
2022-09-15T23:38:18.977Z,82.29
2022-09-15T23:40:50.751Z,82.34
2022-09-15T23:43:21.763Z,82.35
2022-09-15T23:45:51.693Z,82.40
2022-09-15T23:48:23.486Z,82.70
2022-09-15T23:50:54.791Z,82.68
2022-09-15T23:53:25.871Z,82.67
2022-09-15T23:55:57.152Z,82.70
2022-09-15T23:58:28.294Z,82.70
